createdAt,value
2022-11-27T00:02:21.657Z,6.25
2022-11-27T00:04:48.265Z,6.20
2022-11-27T00:07:14.908Z,6.19
2022-11-27T00:09:41.845Z,6.26
2022-11-27T00:12:08.662Z,6.32
2022-11-27T00:14:35.274Z,6.29
2022-11-27T00:17:01.930Z,6.30
2022-11-27T00:19:29.283Z,6.35
2022-11-27T00:21:55.889Z,6.47
2022-11-27T00:24:22.474Z,6.53
2022-11-27T00:26:49.817Z,6.42
2022-11-27T00:29:16.412Z,6.33
2022-11-27T00:31:43.198Z,6.25
2022-11-27T00:34:11.384Z,6.28
2022-11-27T00:36:38.643Z,6.24
2022-11-27T00:39:06.083Z,6.27
2022-11-27T00:41:33.523Z,6.30
2022-11-27T00:44:00.122Z,6.30
2022-11-27T00:46:29.887Z,6.29
2022-11-27T00:48:57.894Z,6.31
2022-11-27T00:51:25.898Z,6.34
2022-11-27T00:53:53.550Z,6.37
2022-11-27T00:56:26.196Z,6.42
2022-11-27T00:58:53.538Z,6.41
2022-11-27T01:01:23.998Z,6.39
2022-11-27T01:03:51.551Z,6.51
2022-11-27T01:06:19.447Z,6.45
2022-11-27T01:08:46.602Z,6.45
2022-11-27T01:11:19.386Z,6.56
2022-11-27T01:13:46.625Z,6.51
2022-11-27T01:16:17.397Z,6.52
2022-11-27T01:18:45.636Z,6.49
2022-11-27T01:21:13.706Z,6.49
2022-11-27T01:23:40.709Z,6.50
2022-11-27T01:26:09.375Z,6.54
2022-11-27T01:28:36.682Z,6.49
2022-11-27T01:31:07.350Z,6.47
2022-11-27T01:33:34.240Z,6.49
2022-11-27T01:36:03.803Z,6.60
2022-11-27T01:38:31.809Z,6.52
2022-11-27T01:41:04.510Z,6.52
2022-11-27T01:43:50.498Z,6.54
2022-11-27T01:46:38.182Z,6.47
2022-11-27T01:49:10.966Z,6.45
2022-11-27T01:51:48.991Z,6.45
2022-11-27T01:54:17.174Z,6.50
2022-11-27T01:56:46.163Z,6.53
2022-11-27T01:59:13.061Z,6.47
2022-11-27T02:01:39.821Z,6.49
2022-11-27T02:04:06.404Z,6.51
2022-11-27T02:06:33.042Z,6.50
2022-11-27T02:08:59.614Z,6.46
2022-11-27T02:11:44.733Z,6.53
2022-11-27T02:14:19.081Z,6.52
2022-11-27T02:17:09.411Z,6.51
2022-11-27T02:19:38.650Z,6.47
2022-11-27T02:22:11.783Z,6.53
2022-11-27T02:24:50.543Z,6.49
2022-11-27T02:27:44.725Z,6.42
2022-11-27T02:30:11.707Z,6.46
2022-11-27T02:32:58.503Z,6.45
2022-11-27T02:35:39.486Z,6.52
2022-11-27T02:38:17.212Z,6.43
2022-11-27T02:40:59.504Z,6.37
2022-11-27T02:43:35.478Z,6.46
2022-11-27T02:46:05.325Z,6.43
2022-11-27T02:48:37.084Z,6.46
2022-11-27T02:51:06.117Z,6.44
2022-11-27T02:53:50.648Z,6.50
2022-11-27T02:56:21.137Z,6.45
2022-11-27T02:58:49.279Z,6.41
2022-11-27T03:01:20.470Z,6.40
2022-11-27T03:03:51.749Z,6.44
2022-11-27T03:06:26.497Z,6.42
2022-11-27T03:09:01.895Z,6.49
2022-11-27T03:11:30.968Z,6.42
2022-11-27T03:14:03.515Z,6.53
2022-11-27T03:16:58.009Z,6.48
2022-11-27T03:19:34.039Z,6.48
2022-11-27T03:22:02.618Z,6.52
2022-11-27T03:24:30.619Z,6.46
2022-11-27T03:26:59.006Z,6.45
2022-11-27T03:29:39.547Z,6.42
2022-11-27T03:32:07.270Z,6.39
2022-11-27T03:34:34.359Z,6.30
2022-11-27T03:37:01.464Z,6.27
2022-11-27T03:39:29.903Z,6.39
2022-11-27T03:42:24.129Z,6.31
2022-11-27T03:45:09.422Z,6.32
2022-11-27T03:47:51.159Z,6.26
2022-11-27T03:50:29.562Z,6.28
2022-11-27T03:53:32.999Z,6.24
2022-11-27T03:56:18.203Z,6.20
2022-11-27T03:58:55.179Z,6.20
2022-11-27T04:01:25.190Z,6.10
2022-11-27T04:03:52.063Z,6.10
2022-11-27T04:06:18.745Z,6.17
2022-11-27T04:08:47.309Z,6.08
2022-11-27T04:11:14.830Z,6.04
2022-11-27T04:13:41.656Z,6.04
2022-11-27T04:16:08.703Z,6.02
2022-11-27T04:18:35.426Z,6.04
2022-11-27T04:21:02.235Z,6.07
2022-11-27T04:23:28.826Z,5.97
2022-11-27T04:25:55.398Z,5.96
2022-11-27T04:28:22.039Z,5.90
2022-11-27T04:30:53.345Z,5.86
2022-11-27T04:33:19.991Z,5.76
2022-11-27T04:35:46.604Z,5.79
2022-11-27T04:38:13.190Z,5.70
2022-11-27T04:40:39.814Z,5.71
2022-11-27T04:43:06.852Z,5.60
2022-11-27T04:45:33.478Z,5.62
2022-11-27T04:48:00.112Z,5.56
2022-11-27T04:50:26.796Z,5.55
2022-11-27T04:52:53.336Z,5.53
2022-11-27T04:55:20.085Z,5.48
2022-11-27T04:57:46.680Z,5.47
2022-11-27T05:00:13.820Z,5.38
2022-11-27T05:02:40.556Z,5.41
2022-11-27T05:05:07.676Z,5.38
2022-11-27T05:07:34.261Z,5.30
2022-11-27T05:10:01.089Z,5.32
2022-11-27T05:12:27.680Z,5.30
2022-11-27T05:14:54.274Z,5.19
2022-11-27T05:17:20.868Z,5.28
2022-11-27T05:19:47.609Z,5.27
2022-11-27T05:22:14.176Z,5.22
2022-11-27T05:24:41.123Z,5.27
2022-11-27T05:27:08.011Z,5.33
2022-11-27T05:29:34.610Z,5.30
2022-11-27T05:32:01.279Z,5.28
2022-11-27T05:34:27.891Z,5.29
2022-11-27T05:36:55.042Z,5.30
2022-11-27T05:39:22.190Z,5.34
2022-11-27T05:41:48.725Z,5.41
2022-11-27T05:44:15.512Z,5.46
2022-11-27T05:46:43.844Z,5.48
2022-11-27T05:49:13.520Z,5.52
2022-11-27T05:51:41.955Z,5.48
2022-11-27T05:54:10.866Z,5.61
2022-11-27T05:56:37.524Z,5.57
2022-11-27T05:59:04.101Z,5.59
2022-11-27T06:01:30.781Z,5.70
2022-11-27T06:03:57.454Z,5.66
2022-11-27T06:06:24.124Z,5.69
2022-11-27T06:08:50.678Z,5.82
2022-11-27T06:11:19.969Z,5.85
2022-11-27T06:13:47.820Z,5.86
2022-11-27T06:16:23.315Z,5.95
2022-11-27T06:18:54.590Z,6.01
2022-11-27T06:21:23.024Z,6.04
2022-11-27T06:23:53.019Z,6.13
2022-11-27T06:26:22.415Z,6.22
2022-11-27T06:28:49.926Z,6.33
2022-11-27T06:31:19.202Z,6.36
2022-11-27T06:33:50.220Z,6.52
2022-11-27T06:36:18.357Z,6.62
2022-11-27T06:38:46.101Z,6.75
2022-11-27T06:41:15.676Z,6.81
2022-11-27T06:43:42.914Z,6.83
2022-11-27T06:46:13.892Z,6.92
2022-11-27T06:48:41.112Z,6.93
2022-11-27T06:51:08.383Z,7.04
2022-11-27T06:53:40.480Z,7.06
2022-11-27T06:56:09.581Z,7.13
2022-11-27T06:58:37.164Z,7.23
2022-11-27T07:01:08.131Z,7.34
2022-11-27T07:03:35.129Z,7.33
2022-11-27T07:06:03.931Z,7.38
2022-11-27T07:08:30.967Z,7.42
2022-11-27T07:11:03.413Z,7.47
2022-11-27T07:13:31.229Z,7.53
2022-11-27T07:16:02.203Z,7.60
2022-11-27T07:18:30.629Z,7.57
2022-11-27T07:20:57.517Z,7.64
2022-11-27T07:23:24.069Z,7.78
2022-11-27T07:25:50.764Z,7.81
2022-11-27T07:28:19.102Z,7.74
2022-11-27T07:30:46.270Z,7.78
2022-11-27T07:33:12.814Z,7.69
2022-11-27T07:35:39.360Z,7.78
2022-11-27T07:38:05.942Z,7.84
2022-11-27T07:40:32.468Z,7.93
2022-11-27T07:43:00.638Z,8.06
2022-11-27T07:45:27.236Z,8.06
2022-11-27T07:47:53.890Z,8.15
2022-11-27T07:50:20.462Z,8.14
2022-11-27T07:52:47.287Z,8.24
2022-11-27T07:55:14.044Z,8.29
2022-11-27T07:57:40.822Z,8.34
2022-11-27T08:00:08.425Z,8.39
2022-11-27T08:02:34.973Z,8.40
2022-11-27T08:05:01.568Z,8.60
2022-11-27T08:07:29.612Z,8.67
2022-11-27T08:09:58.331Z,8.72
2022-11-27T08:12:25.698Z,8.83
2022-11-27T08:14:52.719Z,8.88
2022-11-27T08:17:19.487Z,8.85
2022-11-27T08:19:46.061Z,8.97
2022-11-27T08:22:15.104Z,8.96
2022-11-27T08:24:42.757Z,9.02
2022-11-27T08:27:10.692Z,9.33
2022-11-27T08:29:38.302Z,9.54
2022-11-27T08:32:06.178Z,9.58
2022-11-27T08:34:32.827Z,9.65
2022-11-27T08:36:59.488Z,9.47
2022-11-27T08:39:26.732Z,9.36
2022-11-27T08:41:54.241Z,9.44
2022-11-27T08:44:20.933Z,9.56
2022-11-27T08:46:47.593Z,9.61
2022-11-27T08:49:14.406Z,9.46
2022-11-27T08:51:40.998Z,9.81
2022-11-27T08:54:07.603Z,10.08
2022-11-27T08:56:34.465Z,10.36
2022-11-27T08:59:01.052Z,10.57
2022-11-27T09:01:30.496Z,10.84
2022-11-27T09:03:57.753Z,10.98
2022-11-27T09:06:28.115Z,10.98
2022-11-27T09:08:59.629Z,11.05
2022-11-27T09:11:27.308Z,11.33
2022-11-27T09:13:53.944Z,11.63
2022-11-27T09:16:22.884Z,11.87
2022-11-27T09:18:51.861Z,12.03
2022-11-27T09:21:21.179Z,12.37
2022-11-27T09:23:48.080Z,12.72
2022-11-27T09:26:16.880Z,12.66
2022-11-27T09:28:44.657Z,12.39
2022-11-27T09:31:13.856Z,12.73
2022-11-27T09:33:41.348Z,13.00
2022-11-27T09:36:13.722Z,13.13
2022-11-27T09:38:40.677Z,13.13
2022-11-27T09:41:07.369Z,13.15
2022-11-27T09:44:00.588Z,12.76
2022-11-27T09:46:34.944Z,13.11
2022-11-27T09:49:05.472Z,13.41
2022-11-27T09:51:37.576Z,13.10
2022-11-27T09:54:15.848Z,12.93
2022-11-27T09:56:45.777Z,13.18
2022-11-27T09:59:17.843Z,13.49
2022-11-27T10:01:49.365Z,13.78
2022-11-27T10:04:19.946Z,13.78
2022-11-27T10:07:01.649Z,13.98
2022-11-27T10:09:31.180Z,13.73
2022-11-27T10:11:57.768Z,13.85
2022-11-27T10:15:04.198Z,13.84
2022-11-27T10:17:36.855Z,13.93
2022-11-27T10:20:09.508Z,13.79
2022-11-27T10:23:03.170Z,13.74
2022-11-27T10:25:45.533Z,13.25
2022-11-27T10:28:40.500Z,13.12
2022-11-27T10:31:22.859Z,13.12
2022-11-27T10:33:56.305Z,12.66
2022-11-27T10:36:30.908Z,12.32
2022-11-27T10:39:00.039Z,12.47
2022-11-27T10:42:18.006Z,12.54
2022-11-27T10:44:51.119Z,12.55
2022-11-27T10:47:20.979Z,12.41
2022-11-27T10:49:48.603Z,12.42
2022-11-27T10:52:17.548Z,12.26
2022-11-27T10:54:49.741Z,12.27
2022-11-27T10:57:30.420Z,11.87
2022-11-27T11:00:09.346Z,12.01
2022-11-27T11:02:38.734Z,11.91
2022-11-27T11:08:15.814Z,12.27
2022-11-27T11:10:50.454Z,12.49
2022-11-27T11:13:18.667Z,12.34
2022-11-27T11:15:54.475Z,11.95
2022-11-27T11:18:31.822Z,12.02
2022-11-27T11:21:08.764Z,12.01
2022-11-27T11:23:38.333Z,11.93
2022-11-27T11:26:26.040Z,12.03
2022-11-27T11:28:56.651Z,11.76
2022-11-27T11:31:37.028Z,11.66
2022-11-27T11:34:26.419Z,11.75
2022-11-27T11:37:01.395Z,11.78
2022-11-27T11:39:31.851Z,11.81
2022-11-27T11:41:58.775Z,11.67
2022-11-27T11:44:34.109Z,11.44
2022-11-27T11:47:00.912Z,11.53
2022-11-27T11:49:29.224Z,11.67
2022-11-27T11:52:24.364Z,11.74
2022-11-27T11:54:56.842Z,11.66
2022-11-27T11:57:35.492Z,11.70
2022-11-27T12:00:10.034Z,11.86
2022-11-27T12:02:54.923Z,11.98
2022-11-27T12:05:25.896Z,12.04
2022-11-27T12:08:04.340Z,11.78
2022-11-27T12:10:42.970Z,11.70
2022-11-27T12:13:35.819Z,11.65
2022-11-27T12:16:22.786Z,11.49
2022-11-27T12:19:22.982Z,11.49
2022-11-27T12:21:55.283Z,11.41
2022-11-27T12:24:49.813Z,11.24
2022-11-27T12:27:31.707Z,11.15
2022-11-27T12:30:04.341Z,11.09
2022-11-27T12:32:49.393Z,11.04
2022-11-27T12:35:21.940Z,10.95
2022-11-27T12:37:48.497Z,10.84
2022-11-27T12:40:23.751Z,10.73
2022-11-27T12:42:56.924Z,10.72
2022-11-27T12:45:31.518Z,10.69
2022-11-27T12:48:07.163Z,10.65
2022-11-27T12:50:40.467Z,10.51
2022-11-27T12:53:36.332Z,10.52
2022-11-27T12:56:06.230Z,10.55
2022-11-27T12:58:39.064Z,10.48
2022-11-27T13:01:26.523Z,10.53
2022-11-27T13:04:06.183Z,10.27
2022-11-27T13:06:42.146Z,10.16
2022-11-27T13:09:15.778Z,10.30
2022-11-27T13:11:44.079Z,10.25
2022-11-27T13:14:22.379Z,10.29
2022-11-27T13:16:54.303Z,10.29
2022-11-27T13:19:33.505Z,10.26
2022-11-27T13:22:04.402Z,10.18
2022-11-27T13:24:31.114Z,10.14
2022-11-27T13:27:02.009Z,10.10
2022-11-27T13:29:33.278Z,10.09
2022-11-27T13:32:03.021Z,10.06
2022-11-27T13:34:33.086Z,10.07
2022-11-27T13:37:06.428Z,10.08
2022-11-27T13:39:39.053Z,10.06
2022-11-27T13:42:11.725Z,10.08
2022-11-27T13:44:43.528Z,10.11
2022-11-27T13:47:22.207Z,10.15
2022-11-27T13:50:01.292Z,10.13
2022-11-27T13:52:29.624Z,10.09
2022-11-27T13:54:59.054Z,10.07
2022-11-27T13:57:27.266Z,10.05
2022-11-27T14:00:03.682Z,10.07
2022-11-27T14:03:02.829Z,9.97
2022-11-27T14:05:45.156Z,9.91
2022-11-27T14:08:31.560Z,9.93
2022-11-27T14:11:05.808Z,9.88
2022-11-27T14:13:45.371Z,9.91
2022-11-27T14:16:22.371Z,9.82
2022-11-27T14:18:51.987Z,9.74
2022-11-27T14:21:31.047Z,9.74
2022-11-27T14:23:57.934Z,9.67
2022-11-27T14:26:25.554Z,9.65
2022-11-27T14:28:55.096Z,9.59
2022-11-27T14:31:32.179Z,9.60
2022-11-27T14:34:21.935Z,9.52
2022-11-27T14:36:52.365Z,9.44
2022-11-27T14:39:29.949Z,9.42
2022-11-27T14:42:01.481Z,9.42
2022-11-27T14:44:28.833Z,9.40
2022-11-27T14:46:57.922Z,9.32
2022-11-27T14:49:27.419Z,9.29
2022-11-27T14:52:02.960Z,9.29
2022-11-27T14:54:34.523Z,9.25
2022-11-27T14:57:02.151Z,9.22
2022-11-27T14:59:28.764Z,9.20
2022-11-27T15:02:03.076Z,9.25
2022-11-27T15:04:37.623Z,9.17
2022-11-27T15:07:15.300Z,9.17
2022-11-27T15:09:51.053Z,9.26
2022-11-27T15:12:22.466Z,9.21
2022-11-27T15:15:29.682Z,9.25
2022-11-27T15:18:06.674Z,9.18
2022-11-27T15:20:42.518Z,9.10
2022-11-27T15:23:17.665Z,9.11
2022-11-27T15:25:47.801Z,9.04
2022-11-27T15:28:23.356Z,9.06
2022-11-27T15:30:50.728Z,9.04
2022-11-27T15:33:31.642Z,9.01
2022-11-27T15:36:16.991Z,9.05
2022-11-27T15:38:45.544Z,9.00
2022-11-27T15:41:25.519Z,8.92
2022-11-27T15:43:52.559Z,8.89
2022-11-27T15:46:31.686Z,8.91
2022-11-27T15:48:58.547Z,8.91
2022-11-27T15:51:25.143Z,8.94
2022-11-27T15:53:51.808Z,8.92
2022-11-27T15:56:19.456Z,8.83
2022-11-27T15:58:46.206Z,8.84
2022-11-27T16:01:12.845Z,8.85
2022-11-27T16:03:40.597Z,8.79
2022-11-27T16:06:08.971Z,8.78
2022-11-27T16:08:36.254Z,8.79
2022-11-27T16:11:06.209Z,8.81
2022-11-27T16:13:33.273Z,8.79
2022-11-27T16:16:04.875Z,8.80
2022-11-27T16:18:32.983Z,8.81
2022-11-27T16:21:08.571Z,8.76
2022-11-27T16:23:36.440Z,8.76
2022-11-27T16:26:03.878Z,8.81
2022-11-27T16:28:31.690Z,8.83
2022-11-27T16:31:01.343Z,8.75
2022-11-27T16:33:29.537Z,8.75
2022-11-27T16:35:56.883Z,8.75
2022-11-27T16:38:23.535Z,8.79
2022-11-27T16:40:50.189Z,8.75
2022-11-27T16:43:17.286Z,8.66
2022-11-27T16:45:44.019Z,8.69
2022-11-27T16:48:10.680Z,8.71
2022-11-27T16:50:37.270Z,8.62
2022-11-27T16:53:03.870Z,8.58
2022-11-27T16:55:31.585Z,8.54
2022-11-27T16:57:58.161Z,8.52
2022-11-27T17:00:24.784Z,8.53
2022-11-27T17:02:51.399Z,8.57
2022-11-27T17:05:18.167Z,8.49
2022-11-27T17:07:44.956Z,8.49
2022-11-27T17:10:11.661Z,8.43
2022-11-27T17:12:38.225Z,8.40
2022-11-27T17:15:05.387Z,8.38
2022-11-27T17:17:36.804Z,8.28
2022-11-27T17:20:07.384Z,8.35
2022-11-27T17:22:34.247Z,8.30
2022-11-27T17:25:00.851Z,8.33
2022-11-27T17:27:27.481Z,8.33
2022-11-27T17:29:54.157Z,8.34
2022-11-27T17:32:21.173Z,8.34
2022-11-27T17:34:48.789Z,8.34
2022-11-27T17:37:15.400Z,8.30
2022-11-27T17:39:43.712Z,8.27
2022-11-27T17:42:13.869Z,8.31
2022-11-27T17:44:42.881Z,8.29
2022-11-27T17:47:09.517Z,8.28
2022-11-27T17:49:36.177Z,8.30
2022-11-27T17:52:06.349Z,8.26
2022-11-27T17:54:33.686Z,8.27
2022-11-27T17:57:00.311Z,8.20
2022-11-27T17:59:26.903Z,8.15
2022-11-27T18:01:53.783Z,8.26
2022-11-27T18:04:20.507Z,8.20
2022-11-27T18:06:47.248Z,8.22
2022-11-27T18:09:13.915Z,8.22
2022-11-27T18:11:40.734Z,8.14
2022-11-27T18:14:07.421Z,8.14
2022-11-27T18:16:37.144Z,8.18
2022-11-27T18:19:09.911Z,8.14
2022-11-27T18:21:37.357Z,8.11
2022-11-27T18:27:09.242Z,8.15
2022-11-27T18:29:37.816Z,8.06
2022-11-27T18:32:04.761Z,8.06
2022-11-27T18:34:31.464Z,8.07
2022-11-27T18:36:59.688Z,8.05
2022-11-27T18:39:27.205Z,8.04
2022-11-27T18:41:53.858Z,8.07
2022-11-27T18:44:20.593Z,8.05
2022-11-27T18:46:47.216Z,8.01
2022-11-27T18:49:13.819Z,7.96
2022-11-27T18:51:40.726Z,7.83
2022-11-27T18:54:07.334Z,7.93
2022-11-27T18:56:34.073Z,7.93
2022-11-27T18:59:03.029Z,7.93
2022-11-27T19:01:36.712Z,7.91
2022-11-27T19:04:05.909Z,7.94
2022-11-27T19:06:34.605Z,7.95
2022-11-27T19:09:01.227Z,7.97
2022-11-27T19:11:31.043Z,7.90
2022-11-27T19:13:58.294Z,7.87
2022-11-27T19:16:28.237Z,7.92
2022-11-27T19:18:59.915Z,7.92
2022-11-27T19:21:28.622Z,7.89
2022-11-27T19:23:57.414Z,7.93
2022-11-27T19:26:35.513Z,7.87
2022-11-27T19:29:05.691Z,7.91
2022-11-27T19:31:37.695Z,7.94
2022-11-27T19:34:07.937Z,7.90
2022-11-27T19:36:35.446Z,7.91
2022-11-27T19:39:08.534Z,7.89
2022-11-27T19:41:35.643Z,7.91
2022-11-27T19:44:04.732Z,7.86
2022-11-27T19:46:34.877Z,7.89
2022-11-27T19:49:04.557Z,7.84
2022-11-27T19:51:36.543Z,7.86
2022-11-27T19:54:08.567Z,7.78
2022-11-27T19:56:38.751Z,7.79
2022-11-27T19:59:06.195Z,7.84
2022-11-27T20:01:33.034Z,7.82
2022-11-27T20:04:00.193Z,7.79
2022-11-27T20:06:27.811Z,7.78
2022-11-27T20:08:59.355Z,7.83
2022-11-27T20:11:31.154Z,7.82
2022-11-27T20:14:00.612Z,7.83
2022-11-27T20:16:27.766Z,7.88
2022-11-27T20:18:54.875Z,7.87
2022-11-27T20:21:23.510Z,7.92
2022-11-27T20:23:51.681Z,7.91
2022-11-27T20:26:22.044Z,7.87
2022-11-27T20:28:50.132Z,7.90
2022-11-27T20:31:19.810Z,7.91
2022-11-27T20:33:46.509Z,7.89
2022-11-27T20:36:15.643Z,7.85
2022-11-27T20:38:42.272Z,7.83
2022-11-27T20:41:12.011Z,7.89
2022-11-27T20:43:39.109Z,7.85
2022-11-27T20:46:07.707Z,7.93
2022-11-27T20:48:34.726Z,7.88
2022-11-27T20:51:07.292Z,7.90
2022-11-27T20:53:34.028Z,7.91
2022-11-27T20:56:08.265Z,7.95
2022-11-27T20:58:36.348Z,7.89
2022-11-27T21:01:22.819Z,7.89
2022-11-27T21:03:51.563Z,7.84
2022-11-27T21:06:20.454Z,7.86
2022-11-27T21:08:47.395Z,7.84
2022-11-27T21:11:17.327Z,7.84
2022-11-27T21:13:44.853Z,7.81
2022-11-27T21:16:13.559Z,7.83
2022-11-27T21:18:40.781Z,7.84
2022-11-27T21:21:13.561Z,7.81
2022-11-27T21:23:41.781Z,7.84
2022-11-27T21:26:09.654Z,7.83
2022-11-27T21:28:36.220Z,7.86
2022-11-27T21:31:07.186Z,7.88
2022-11-27T21:33:34.528Z,7.94
2022-11-27T21:36:01.125Z,7.89
2022-11-27T21:38:27.852Z,7.88
2022-11-27T21:40:55.069Z,7.89
2022-11-27T21:43:21.749Z,7.89
2022-11-27T21:45:48.644Z,7.93
2022-11-27T21:48:15.238Z,7.94
2022-11-27T21:50:41.793Z,7.93
2022-11-27T21:53:08.427Z,7.85
2022-11-27T21:55:40.480Z,7.85
2022-11-27T21:58:07.209Z,7.82
2022-11-27T22:00:34.085Z,7.79
2022-11-27T22:03:00.704Z,7.73
2022-11-27T22:05:27.384Z,7.67
2022-11-27T22:07:54.037Z,7.74
2022-11-27T22:10:20.641Z,7.68
2022-11-27T22:12:47.197Z,7.60
2022-11-27T22:15:13.797Z,7.53
2022-11-27T22:17:40.430Z,7.45
2022-11-27T22:20:07.616Z,7.46
2022-11-27T22:22:34.740Z,7.33
2022-11-27T22:25:04.261Z,7.28
2022-11-27T22:27:31.073Z,7.34
2022-11-27T22:29:57.635Z,7.35
2022-11-27T22:32:24.305Z,7.41
2022-11-27T22:34:51.324Z,7.38
2022-11-27T22:37:17.910Z,7.33
2022-11-27T22:39:44.628Z,7.36
2022-11-27T22:42:12.257Z,7.39
2022-11-27T22:44:39.408Z,7.42
2022-11-27T22:47:06.095Z,7.30
2022-11-27T22:49:32.695Z,7.29
2022-11-27T22:51:59.222Z,7.29
2022-11-27T22:54:25.772Z,7.26
2022-11-27T22:56:52.312Z,7.30
2022-11-27T22:59:34.869Z,7.29
2022-11-27T23:02:03.544Z,7.27
2022-11-27T23:04:30.212Z,7.31
2022-11-27T23:06:56.798Z,7.32
2022-11-27T23:09:23.816Z,7.35
2022-11-27T23:11:50.943Z,7.35
2022-11-27T23:14:17.897Z,7.30
2022-11-27T23:16:44.848Z,7.29
2022-11-27T23:19:12.131Z,7.35
2022-11-27T23:21:39.175Z,7.36
2022-11-27T23:24:08.631Z,7.37
2022-11-27T23:26:35.697Z,7.27
2022-11-27T23:29:02.901Z,7.25
2022-11-27T23:31:37.087Z,7.28
2022-11-27T23:34:09.849Z,7.33
2022-11-27T23:36:36.817Z,7.32
2022-11-27T23:39:05.573Z,7.33
2022-11-27T23:41:32.233Z,7.25
2022-11-27T23:43:59.128Z,7.30
2022-11-27T23:46:27.971Z,7.26
2022-11-27T23:48:55.955Z,7.29
2022-11-27T23:51:25.946Z,7.27
2022-11-27T23:53:53.536Z,7.32
2022-11-27T23:56:26.332Z,7.33
2022-11-27T23:58:54.500Z,7.31
